createdAt,value
2023-03-23T07:19:09.255Z,39.00
2023-03-23T07:19:20.331Z,41.10
2023-03-23T07:19:30.325Z,40.40
2023-03-23T07:19:40.513Z,41.30
2023-03-23T07:19:50.576Z,41.60
2023-03-23T07:20:00.749Z,39.60
2023-03-23T07:20:10.840Z,40.40
2023-03-23T07:20:21.079Z,39.30
2023-03-23T07:20:31.052Z,38.90
2023-03-23T07:20:41.223Z,38.40
2023-03-23T07:20:51.303Z,38.20
2023-03-23T07:21:01.500Z,40.60
2023-03-23T07:21:11.563Z,39.60
2023-03-23T07:21:21.733Z,40.30
2023-03-23T07:21:31.852Z,42.30
2023-03-23T07:21:41.939Z,44.00
2023-03-23T07:21:52.065Z,44.20
2023-03-23T07:22:02.221Z,42.90
2023-03-23T07:22:12.358Z,43.50
2023-03-23T07:22:24.214Z,43.10
2023-03-23T07:22:32.519Z,45.00
2023-03-23T07:22:42.712Z,43.70
2023-03-23T07:22:52.814Z,46.00
2023-03-23T07:23:02.932Z,49.40
2023-03-23T07:23:13.129Z,50.50
2023-03-23T07:23:24.035Z,51.00
2023-03-23T07:23:33.248Z,49.40
2023-03-23T07:23:43.382Z,49.40
2023-03-23T07:23:53.653Z,46.80
2023-03-23T07:24:03.680Z,45.60
2023-03-23T07:24:13.783Z,48.90
2023-03-23T07:24:34.032Z,51.00
2023-03-23T07:24:44.178Z,52.80
2023-03-23T07:24:54.236Z,54.00
2023-03-23T07:25:04.494Z,52.70
2023-03-23T07:25:14.600Z,47.30
2023-03-23T07:25:24.743Z,45.90
2023-03-23T07:25:34.830Z,44.00
2023-03-23T07:25:45.014Z,42.50
2023-03-23T07:25:55.138Z,42.00
2023-03-23T07:26:05.191Z,41.00
2023-03-23T07:26:15.336Z,41.20
2023-03-23T07:26:25.535Z,41.00
2023-03-23T07:26:35.671Z,43.80
2023-03-23T07:26:45.831Z,45.00
2023-03-23T07:26:55.970Z,45.40
2023-03-23T07:27:06.063Z,46.30
2023-03-23T07:27:16.190Z,45.20
2023-03-23T07:27:26.365Z,45.10
2023-03-23T07:27:36.448Z,42.70
2023-03-23T07:27:46.598Z,43.60
2023-03-23T07:27:56.678Z,45.50
2023-03-23T07:28:06.816Z,45.80
2023-03-23T07:28:16.828Z,49.90
2023-03-23T07:28:26.980Z,50.50
2023-03-23T07:28:37.146Z,54.20
2023-03-23T07:28:47.313Z,55.00
2023-03-23T07:28:58.004Z,53.00
2023-03-23T07:29:07.463Z,53.70
2023-03-23T07:29:17.700Z,52.80
2023-03-23T07:29:27.819Z,52.90
2023-03-23T07:29:38.235Z,48.40
2023-03-23T07:29:48.998Z,44.50
2023-03-23T07:29:58.868Z,44.20
2023-03-23T07:30:08.444Z,42.50
2023-03-23T07:30:19.429Z,41.20
2023-03-23T07:30:29.676Z,46.50
2023-03-23T07:30:38.656Z,53.90
2023-03-23T07:30:59.520Z,56.70
2023-03-23T07:31:09.068Z,58.00
2023-03-23T07:31:19.128Z,58.00
2023-03-23T07:31:29.859Z,49.20
2023-03-23T07:31:39.377Z,47.80
2023-03-23T07:31:49.501Z,45.20
2023-03-23T07:31:59.695Z,45.70
2023-03-23T07:32:10.362Z,46.50
2023-03-23T07:32:19.857Z,45.50
2023-03-23T07:32:29.949Z,47.00
2023-03-23T07:32:40.006Z,44.90
2023-03-23T07:32:50.242Z,46.90
2023-03-23T07:33:00.365Z,45.30
2023-03-23T07:33:10.358Z,45.10
2023-03-23T07:33:20.503Z,46.40
2023-03-23T07:33:30.751Z,46.60
2023-03-23T07:33:40.979Z,45.60
2023-03-23T07:33:51.083Z,44.80
2023-03-23T07:34:01.012Z,45.10
2023-03-23T07:34:11.115Z,47.00
2023-03-23T07:34:21.205Z,47.10
2023-03-23T07:34:31.353Z,45.90
2023-03-23T07:34:41.475Z,47.00
2023-03-23T07:34:51.635Z,47.10
2023-03-23T07:35:01.705Z,45.30
2023-03-23T07:35:12.856Z,44.00
2023-03-23T07:35:22.259Z,43.60
2023-03-23T07:35:32.379Z,43.40
2023-03-23T07:35:42.654Z,41.50
2023-03-23T07:35:52.656Z,40.00
2023-03-23T07:36:02.748Z,41.50
2023-03-23T07:36:12.878Z,41.70
2023-03-23T07:36:22.997Z,43.40
2023-03-23T07:36:33.236Z,43.50
2023-03-23T07:36:43.250Z,44.10
2023-03-23T07:36:53.484Z,46.00
2023-03-23T07:37:03.590Z,45.20
2023-03-23T07:37:13.718Z,43.10
2023-03-23T07:37:23.849Z,41.80
2023-03-23T07:37:33.901Z,40.70
2023-03-23T07:37:44.070Z,40.40
2023-03-23T07:37:54.123Z,37.50
2023-03-23T07:38:05.211Z,39.80
2023-03-23T07:38:14.754Z,41.40
2023-03-23T07:38:24.900Z,40.90
2023-03-23T07:38:35.026Z,41.90
2023-03-23T07:38:45.072Z,44.80
2023-03-23T07:38:55.221Z,50.70
2023-03-23T07:39:05.445Z,48.20
2023-03-23T07:39:15.548Z,45.60
2023-03-23T07:39:25.660Z,47.00
2023-03-23T07:39:37.171Z,46.20
2023-03-23T07:39:45.937Z,47.50
2023-03-23T07:39:56.983Z,42.20
2023-03-23T07:40:06.223Z,45.70
2023-03-23T07:40:16.504Z,51.60
2023-03-23T07:40:26.494Z,52.20
2023-03-23T07:40:36.713Z,50.50
2023-03-23T07:40:46.799Z,47.20
2023-03-23T07:40:57.001Z,45.20
2023-03-23T07:41:07.130Z,41.80
2023-03-23T07:41:17.302Z,36.30
2023-03-23T07:41:27.301Z,36.30
2023-03-23T07:41:37.554Z,37.60
2023-03-23T07:41:47.597Z,40.10
2023-03-23T07:41:57.718Z,41.40
2023-03-23T07:42:07.755Z,42.30
2023-03-23T07:42:17.950Z,41.10
2023-03-23T07:42:28.032Z,41.30
2023-03-23T07:42:38.183Z,38.70
2023-03-23T07:42:48.229Z,37.20
2023-03-23T07:42:58.501Z,35.70
2023-03-23T07:43:08.507Z,35.80
2023-03-23T07:43:18.707Z,36.30
2023-03-23T07:43:28.791Z,36.00
2023-03-23T07:43:38.933Z,38.60
2023-03-23T07:43:49.064Z,39.20
2023-03-23T07:43:59.374Z,46.00
2023-03-23T07:44:09.440Z,47.00
2023-03-23T07:44:20.371Z,46.10
2023-03-23T07:44:29.650Z,44.80
2023-03-23T07:44:39.718Z,43.30
2023-03-23T07:44:49.796Z,42.70
2023-03-23T07:45:00.045Z,37.40
2023-03-23T07:45:10.025Z,36.90
2023-03-23T07:45:30.378Z,40.30
2023-03-23T07:45:40.457Z,40.80
2023-03-23T07:45:50.678Z,41.10
2023-03-23T07:46:00.661Z,39.10
2023-03-23T07:46:10.794Z,37.70
2023-03-23T07:46:20.847Z,37.20
2023-03-23T07:46:30.954Z,37.60
2023-03-23T07:46:41.030Z,36.80
2023-03-23T07:46:51.131Z,39.20
2023-03-23T07:47:01.232Z,40.00
2023-03-23T07:47:11.276Z,40.20
2023-03-23T07:47:22.580Z,42.40
2023-03-23T07:47:39.858Z,44.10
2023-03-23T07:47:45.729Z,41.40
2023-03-23T07:47:56.047Z,39.60
2023-03-23T07:48:12.729Z,39.50
2023-03-23T07:48:21.873Z,40.10
2023-03-23T07:48:27.883Z,35.20
2023-03-23T07:48:48.182Z,37.50
2023-03-23T07:48:58.255Z,40.50
2023-03-23T07:49:08.351Z,39.80
2023-03-23T07:49:18.542Z,39.30
2023-03-23T07:49:28.642Z,37.70
2023-03-23T07:49:40.600Z,41.30
2023-03-23T07:49:49.150Z,40.50
2023-03-23T07:49:59.475Z,39.60
2023-03-23T07:50:09.439Z,41.40
2023-03-23T07:50:19.618Z,43.60
2023-03-23T07:50:29.601Z,43.20
2023-03-23T07:50:49.880Z,39.60
2023-03-23T07:51:00.035Z,42.90
2023-03-23T07:51:10.154Z,42.40
2023-03-23T07:51:20.330Z,46.80
2023-03-23T07:51:30.375Z,48.70
2023-03-23T07:51:40.545Z,49.20
2023-03-23T07:51:50.655Z,52.50
2023-03-23T07:52:00.790Z,53.00
2023-03-23T07:52:10.870Z,54.40
2023-03-23T07:52:21.109Z,52.20
2023-03-23T07:52:31.130Z,56.10
2023-03-23T07:52:41.180Z,58.90
2023-03-23T07:52:51.334Z,57.10
2023-03-23T07:53:01.565Z,57.40
2023-03-23T07:53:11.698Z,59.90
2023-03-23T07:53:21.989Z,56.10
2023-03-23T07:53:31.992Z,51.00
2023-03-23T07:53:42.101Z,49.30
2023-03-23T07:53:52.170Z,48.40
2023-03-23T07:54:02.886Z,46.30
2023-03-23T07:54:12.468Z,42.60
2023-03-23T07:54:22.761Z,44.20
2023-03-23T07:54:33.372Z,45.90
2023-03-23T07:54:42.965Z,47.80
2023-03-23T07:54:52.936Z,45.40
2023-03-23T07:55:03.222Z,45.00
2023-03-23T07:55:13.467Z,44.20
2023-03-23T07:55:23.461Z,44.30
2023-03-23T07:55:33.588Z,44.30
2023-03-23T07:55:43.925Z,45.30
2023-03-23T07:55:53.829Z,49.60
2023-03-23T07:56:04.037Z,48.30
2023-03-23T07:56:14.215Z,50.20
2023-03-23T07:56:24.191Z,53.00
2023-03-23T07:56:34.447Z,55.70
2023-03-23T07:56:44.595Z,54.50
2023-03-23T07:56:54.619Z,51.70
2023-03-23T07:57:04.996Z,53.70
2023-03-23T07:57:14.856Z,52.50
2023-03-23T07:57:24.969Z,65.10
2023-03-23T07:57:35.050Z,70.00
2023-03-23T07:57:45.212Z,70.50
2023-03-23T07:57:55.261Z,72.00
2023-03-23T07:58:05.427Z,72.00
2023-03-23T07:58:15.474Z,71.10
2023-03-23T07:58:25.673Z,52.00
2023-03-23T07:58:35.772Z,46.90
2023-03-23T07:58:45.918Z,44.60
2023-03-23T07:58:56.000Z,42.70
2023-03-23T07:59:06.219Z,41.70
2023-03-23T07:59:16.242Z,45.70
2023-03-23T07:59:26.401Z,46.20
2023-03-23T07:59:36.468Z,46.20
2023-03-23T07:59:46.726Z,45.10
2023-03-23T07:59:56.866Z,48.60
2023-03-23T08:00:06.976Z,47.10
2023-03-23T08:00:17.056Z,43.80
2023-03-23T08:00:27.359Z,42.70
2023-03-23T08:00:37.309Z,43.30
2023-03-23T08:00:47.587Z,47.40
2023-03-23T08:00:57.654Z,43.80
2023-03-23T08:01:07.838Z,44.90
2023-03-23T08:01:17.828Z,43.30
2023-03-23T08:01:27.995Z,44.10
2023-03-23T08:01:38.221Z,46.10
2023-03-23T08:01:48.299Z,44.20
2023-03-23T08:01:58.437Z,45.60
2023-03-23T08:02:08.686Z,46.00
2023-03-23T08:02:18.614Z,47.40
2023-03-23T08:02:29.994Z,47.50
2023-03-23T08:02:40.845Z,48.10
2023-03-23T08:02:50.631Z,48.00
2023-03-23T08:03:00.754Z,47.40
2023-03-23T08:03:10.926Z,47.00
2023-03-23T08:03:21.105Z,45.20
2023-03-23T08:03:31.097Z,42.50
2023-03-23T08:04:46.021Z,48.50
2023-03-23T08:04:56.819Z,45.70
2023-03-23T08:05:06.756Z,47.40
2023-03-23T08:05:16.908Z,49.70
2023-03-23T08:05:26.956Z,49.60
2023-03-23T08:05:37.311Z,47.70
2023-03-23T08:05:47.331Z,47.00
2023-03-23T08:05:57.449Z,49.50
2023-03-23T08:06:07.483Z,46.30
2023-03-23T08:06:17.672Z,45.00
2023-03-23T08:06:27.909Z,44.10
2023-03-23T08:06:38.046Z,39.60
2023-03-23T08:06:48.042Z,44.90
2023-03-23T08:06:59.017Z,42.50
2023-03-23T08:07:08.245Z,42.90
2023-03-23T08:07:19.874Z,43.70
2023-03-23T08:07:28.454Z,46.40
2023-03-23T08:07:38.585Z,50.10
2023-03-23T08:07:48.781Z,45.60
2023-03-23T08:08:09.083Z,44.00
2023-03-23T08:08:19.185Z,44.90
2023-03-23T08:08:29.247Z,53.00
2023-03-23T08:08:39.488Z,52.30
2023-03-23T08:08:49.603Z,58.80
2023-03-23T08:08:59.815Z,61.40
2023-03-23T08:09:09.810Z,63.90
2023-03-23T08:09:20.057Z,64.30
2023-03-23T08:09:30.169Z,53.90
2023-03-23T08:09:40.259Z,54.00
2023-03-23T08:09:50.298Z,50.00
2023-03-23T08:10:00.471Z,47.50
2023-03-23T08:10:10.622Z,45.50
2023-03-23T08:10:20.631Z,40.70
2023-03-23T08:10:30.735Z,38.60
2023-03-23T08:10:41.029Z,39.50
2023-03-23T08:10:53.421Z,37.60
2023-03-23T08:11:01.363Z,37.20
2023-03-23T08:11:11.475Z,37.30
2023-03-23T08:11:21.698Z,43.20
2023-03-23T08:11:31.890Z,49.20
2023-03-23T08:11:41.884Z,49.60
2023-03-23T08:12:02.188Z,47.80
2023-03-23T08:12:12.274Z,49.20
2023-03-23T08:12:22.446Z,43.40
2023-03-23T08:12:32.576Z,38.90
2023-03-23T08:12:42.650Z,38.40
2023-03-23T08:12:52.742Z,38.70
2023-03-23T08:13:02.932Z,41.90
2023-03-23T08:13:12.905Z,45.40
2023-03-23T08:13:23.148Z,46.00
2023-03-23T08:13:33.175Z,46.80
2023-03-23T08:13:43.300Z,47.80
2023-03-23T08:13:53.372Z,50.60
2023-03-23T08:14:03.539Z,52.90
2023-03-23T08:14:14.560Z,51.80
2023-03-23T08:14:23.867Z,52.10
2023-03-23T08:14:34.004Z,51.70
2023-03-23T08:14:44.150Z,49.20
2023-03-23T08:14:54.250Z,50.10
2023-03-23T08:15:04.501Z,52.30
2023-03-23T08:15:14.450Z,48.30
2023-03-23T08:15:24.642Z,48.00
2023-03-23T08:15:34.679Z,48.10
2023-03-23T08:15:44.890Z,47.20
2023-03-23T08:15:54.959Z,42.60
2023-03-23T08:16:05.159Z,39.20
2023-03-23T08:16:15.253Z,41.80
2023-03-23T08:16:25.544Z,41.00
2023-03-23T08:16:35.587Z,41.90
2023-03-23T08:16:45.815Z,45.90
2023-03-23T08:16:56.003Z,46.20
2023-03-23T08:17:05.979Z,43.10
2023-03-23T08:17:16.174Z,41.20
2023-03-23T08:17:26.221Z,40.60
2023-03-23T08:17:36.374Z,40.60
2023-03-23T08:17:46.475Z,42.70
2023-03-23T08:17:56.593Z,42.50
2023-03-23T08:18:06.672Z,43.90
2023-03-23T08:18:16.761Z,44.30
2023-03-23T08:18:26.960Z,45.30
2023-03-23T08:18:37.033Z,46.10
2023-03-23T08:18:47.208Z,40.40
2023-03-23T08:18:57.307Z,41.70
2023-03-23T08:19:14.034Z,39.10
2023-03-23T08:19:19.942Z,40.50
2023-03-23T08:19:30.080Z,41.70
2023-03-23T08:19:40.155Z,44.10
2023-03-23T08:19:50.354Z,43.10
2023-03-23T08:20:00.493Z,47.00
2023-03-23T08:20:20.689Z,48.90
2023-03-23T08:20:30.849Z,46.20
2023-03-23T08:20:40.894Z,47.00
2023-03-23T08:20:52.240Z,48.90
2023-03-23T08:21:01.143Z,43.70
2023-03-23T08:21:11.248Z,43.80
2023-03-23T08:21:21.347Z,40.40
2023-03-23T08:21:31.578Z,43.80
2023-03-23T08:21:41.605Z,42.60
